地図

経路データ

SID SEASON NUMBER BASIN SUBBASIN NAME ISO_TIME NATURE LAT LON WMO_WIND WMO_PRES WMO_AGENCY TRACK_TYPE DIST2LAND LANDFALL IFLAG USA_AGENCY USA_ATCF_ID USA_LAT USA_LON USA_RECORD USA_STATUS USA_WIND USA_PRES USA_SSHS USA_R34_NE USA_R34_SE USA_R34_SW USA_R34_NW USA_R50_NE USA_R50_SE USA_R50_SW USA_R50_NW USA_R64_NE USA_R64_SE USA_R64_SW USA_R64_NW USA_POCI USA_ROCI USA_RMW USA_EYE TOKYO_LAT TOKYO_LON TOKYO_GRADE TOKYO_WIND TOKYO_PRES TOKYO_R50_DIR TOKYO_R50_LONG TOKYO_R50_SHORT TOKYO_R30_DIR TOKYO_R30_LONG TOKYO_R30_SHORT TOKYO_LAND CMA_LAT CMA_LON CMA_CAT CMA_WIND CMA_PRES HKO_LAT HKO_LON HKO_CAT HKO_WIND HKO_PRES NEWDELHI_LAT NEWDELHI_LON NEWDELHI_GRADE NEWDELHI_WIND NEWDELHI_PRES NEWDELHI_CI NEWDELHI_DP NEWDELHI_POCI REUNION_LAT REUNION_LON REUNION_TYPE REUNION_WIND REUNION_PRES REUNION_TNUM REUNION_CI REUNION_RMW REUNION_R34_NE REUNION_R34_SE REUNION_R34_SW REUNION_R34_NW REUNION_R50_NE REUNION_R50_SE REUNION_R50_SW REUNION_R50_NW REUNION_R64_NE REUNION_R64_SE REUNION_R64_SW REUNION_R64_NW BOM_LAT BOM_LON BOM_TYPE BOM_WIND BOM_PRES BOM_TNUM BOM_CI BOM_RMW BOM_R34_NE BOM_R34_SE BOM_R34_SW BOM_R34_NW BOM_R50_NE BOM_R50_SE BOM_R50_SW BOM_R50_NW BOM_R64_NE BOM_R64_SE BOM_R64_SW BOM_R64_NW BOM_ROCI BOM_POCI BOM_EYE BOM_POS_METHOD BOM_PRES_METHOD NADI_LAT NADI_LON NADI_CAT NADI_WIND NADI_PRES WELLINGTON_LAT WELLINGTON_LON WELLINGTON_WIND WELLINGTON_PRES DS824_LAT DS824_LON DS824_STAGE DS824_WIND DS824_PRES TD9636_LAT TD9636_LON TD9636_STAGE TD9636_WIND TD9636_PRES TD9635_LAT TD9635_LON TD9635_WIND TD9635_PRES TD9635_ROCI NEUMANN_LAT NEUMANN_LON NEUMANN_CLASS NEUMANN_WIND NEUMANN_PRES MLC_LAT MLC_LON MLC_CLASS MLC_WIND MLC_PRES USA_GUST BOM_GUST BOM_GUST_PER REUNION_GUST REUNION_GUST_PER USA_SEAHGT USA_SEARAD_NE USA_SEARAD_SE USA_SEARAD_SW USA_SEARAD_NW STORM_SPEED STORM_DIR
1939302N15278 1939 75 NA CS NOT_NAMED 1939-10-28 12:00:00 TS 15.0000 -82.0000 25 hurdat_atl main 118 97 O_____________ hurdat_atl AL061939 15.0000 -82.0000 TD 25 -1 5 308
1939302N15278 1939 75 NA CS NOT_NAMED 1939-10-28 15:00:00 TS 15.1500 -82.1999 main 99 82 P_____________ AL061939 15.1500 -82.1999 TD 25 -1 5 308
1939302N15278 1939 75 NA CS NOT_NAMED 1939-10-28 18:00:00 TS 15.3000 -82.4000 25 hurdat_atl main 82 69 O_____________ hurdat_atl AL061939 15.3000 -82.4000 TD 25 -1 5 308
1939302N15278 1939 75 NA CS NOT_NAMED 1939-10-28 21:00:00 TS 15.4500 -82.6000 main 69 69 P_____________ AL061939 15.4500 -82.6000 TD 27 -1 5 308
1939302N15278 1939 75 NA CS NOT_NAMED 1939-10-29 00:00:00 TS 15.6000 -82.8000 30 hurdat_atl main 72 61 O_____________ hurdat_atl AL061939 15.6000 -82.8000 TD 30 -1 5 307
1939302N15278 1939 75 NA CS NOT_NAMED 1939-10-29 03:00:00 TS 15.7500 -83.0075 main 70 61 P_____________ AL061939 15.7500 -83.0075 TD 30 -1 5 308
1939302N15278 1939 75 NA CS NOT_NAMED 1939-10-29 06:00:00 TS 15.9000 -83.2000 30 hurdat_atl main 70 68 O_____________ hurdat_atl AL061939 15.9000 -83.2000 TD 30 -1 4 311
1939302N15278 1939 75 NA CS NOT_NAMED 1939-10-29 09:00:00 TS 16.0425 -83.3576 main 74 74 P_____________ AL061939 16.0425 -83.3576 TD 30 -1 4 316
1939302N15278 1939 75 NA CS NOT_NAMED 1939-10-29 12:00:00 TS 16.2000 -83.5000 30 hurdat_atl main 85 85 O_____________ hurdat_atl AL061939 16.2000 -83.5000 TD 30 -1 4 320
1939302N15278 1939 75 NA CS NOT_NAMED 1939-10-29 15:00:00 TS 16.3775 -83.6501 main 92 92 P_____________ AL061939 16.3775 -83.6501 TD 30 -1 5 324
1939302N15278 1939 75 NA CS NOT_NAMED 1939-10-29 18:00:00 TS 16.6000 -83.8000 30 hurdat_atl main 104 104 O_____________ hurdat_atl AL061939 16.6000 -83.8000 TD 30 -1 6 330
1939302N15278 1939 75 NA CS NOT_NAMED 1939-10-29 21:00:00 TS 16.8775 -83.9500 main 127 127 P_____________ AL061939 16.8775 -83.9500 TD 32 -1 7 334
1939302N15278 1939 75 NA CS NOT_NAMED 1939-10-30 00:00:00 TS 17.2000 -84.1000 35 hurdat_atl main 158 158 O_____________ hurdat_atl AL061939 17.2000 -84.1000 TS 35 0 7 336
1939302N15278 1939 75 NA CS NOT_NAMED 1939-10-30 03:00:00 TS 17.5500 -84.2649 main 194 194 P_____________ AL061939 17.5500 -84.2649 TS 35 0 8 338
1939302N15278 1939 75 NA CS NOT_NAMED 1939-10-30 06:00:00 TS 17.9000 -84.4000 35 hurdat_atl main 226 226 O_____________ hurdat_atl AL061939 17.9000 -84.4000 TS 35 0 7 342
1939302N15278 1939 75 NA CS NOT_NAMED 1939-10-30 09:00:00 TS 18.2225 -84.4950 main 258 258 P_____________ AL061939 18.2225 -84.4950 TS 35 0 6 351
1939302N15278 1939 75 NA CS NOT_NAMED 1939-10-30 12:00:00 TS 18.5000 -84.5000 35 hurdat_atl main 291 291 O_____________ hurdat_atl AL061939 18.5000 -84.5000 TS 35 0 5 10
1939302N15278 1939 75 NA CS NOT_NAMED 1939-10-30 15:00:00 TS 18.7299 -84.4026 main 314 314 P_____________ AL061939 18.7299 -84.4026 TS 37 0 5 35
1939302N15278 1939 75 NA CS NOT_NAMED 1939-10-30 18:00:00 TS 18.9000 -84.2000 40 hurdat_atl main 315 291 O_____________ hurdat_atl AL061939 18.9000 -84.2000 TS 40 0 6 58
1939302N15278 1939 75 NA CS NOT_NAMED 1939-10-30 21:00:00 TS 19.0226 -83.9075 main 291 270 P_____________ AL061939 19.0226 -83.9075 TS 42 0 6 71
1939302N15278 1939 75 NA CS NOT_NAMED 1939-10-31 00:00:00 TS 19.1000 -83.6000 45 hurdat_atl main 270 253 O_____________ hurdat_atl AL061939 19.1000 -83.6000 TS 45 0 5 73
1939302N15278 1939 75 NA CS NOT_NAMED 1939-10-31 03:00:00 TS 19.1648 -83.4075 main 253 249 P_____________ AL061939 19.1648 -83.4075 TS 50 0 4 75
1939302N15278 1939 75 NA CS NOT_NAMED 1939-10-31 06:00:00 TS 19.2000 -83.2000 55 hurdat_atl main 249 246 O_____________ hurdat_atl AL061939 19.2000 -83.2000 TS 55 0 5 85
1939302N15278 1939 75 NA CS NOT_NAMED 1939-10-31 09:00:00 TS 19.2075 -82.8725 main 246 246 P_____________ AL061939 19.2075 -82.8725 TS 60 0 7 90
1939302N15278 1939 75 NA CS NOT_NAMED 1939-10-31 12:00:00 TS 19.2000 -82.5000 65 hurdat_atl main 248 248 O_____________ hurdat_atl AL061939 19.2000 -82.5000 HU 65 1 7 91
1939302N15278 1939 75 NA CS NOT_NAMED 1939-10-31 15:00:00 TS 19.1998 -82.1650 main 253 253 P_____________ AL061939 19.1998 -82.1650 HU 70 1 7 90
1939302N15278 1939 75 NA CS NOT_NAMED 1939-10-31 18:00:00 TS 19.2000 -81.8000 75 hurdat_atl main 267 267 O_____________ hurdat_atl AL061939 19.2000 -81.8000 HU 75 1 8 90
1939302N15278 1939 75 NA CS NOT_NAMED 1939-10-31 21:00:00 TS 19.2000 -81.3650 main 286 286 P_____________ AL061939 19.2000 -81.3650 HU 77 1 9 90
1939302N15278 1939 75 NA CS NOT_NAMED 1939-11-01 00:00:00 TS 19.2000 -80.9000 80 hurdat_atl main 286 247 O_____________ hurdat_atl AL061939 19.2000 -80.9000 HU 80 1 9 90
1939302N15278 1939 75 NA CS NOT_NAMED 1939-11-01 03:00:00 TS 19.1998 -80.4575 main 247 200 P_____________ AL061939 19.1998 -80.4575 HU 75 1 9 90
1939302N15278 1939 75 NA CS NOT_NAMED 1939-11-01 06:00:00 TS 19.2000 -80.0000 70 hurdat_atl main 200 154 O_____________ hurdat_atl AL061939 19.2000 -80.0000 HU 70 1 9 90
1939302N15278 1939 75 NA CS NOT_NAMED 1939-11-01 09:00:00 TS 19.2002 -79.4700 main 154 115 P_____________ AL061939 19.2002 -79.4700 HU 67 1 9 90
1939302N15278 1939 75 NA CS NOT_NAMED 1939-11-01 12:00:00 TS 19.2000 -79.0000 65 hurdat_atl main 115 98 O_____________ hurdat_atl AL061939 19.2000 -79.0000 HU 65 1 7 91
1939302N15278 1939 75 NA CS NOT_NAMED 1939-11-01 15:00:00 TS 19.1923 -78.6975 main 98 91 P_____________ AL061939 19.1923 -78.6975 HU 62 0 5 90
1939302N15278 1939 75 NA CS NOT_NAMED 1939-11-01 18:00:00 TS 19.2000 -78.5000 60 hurdat_atl main 91 89 O_____________ hurdat_atl AL061939 19.2000 -78.5000 TS 60 0 4 82
1939302N15278 1939 75 NA CS NOT_NAMED 1939-11-01 21:00:00 TS 19.2425 -78.3275 main 89 76 P_____________ AL061939 19.2425 -78.3275 TS 60 0 3 70
1939302N15278 1939 75 NA CS NOT_NAMED 1939-11-02 00:00:00 TS 19.3000 -78.2000 60 hurdat_atl main 76 61 O_____________ hurdat_atl AL061939 19.3000 -78.2000 TS 60 0 3 62
1939302N15278 1939 75 NA CS NOT_NAMED 1939-11-02 03:00:00 TS 19.3575 -78.0925 main 61 54 P_____________ AL061939 19.3575 -78.0925 TS 57 0 2 62
1939302N15278 1939 75 NA CS NOT_NAMED 1939-11-02 06:00:00 TS 19.4000 -78.0000 55 hurdat_atl main 54 49 O_____________ hurdat_atl AL061939 19.4000 -78.0000 TS 55 0 2 69
1939302N15278 1939 75 NA CS NOT_NAMED 1939-11-02 09:00:00 TS 19.4225 -77.9075 main 49 45 P_____________ AL061939 19.4225 -77.9075 TS 55 0 2 90
1939302N15278 1939 75 NA CS NOT_NAMED 1939-11-02 12:00:00 TS 19.4000 -77.8000 55 hurdat_atl main 45 44 O_____________ hurdat_atl AL061939 19.4000 -77.8000 TS 55 0 3 114
1939302N15278 1939 75 NA CS NOT_NAMED 1939-11-02 15:00:00 TS 19.3150 -77.6575 main 55 55 P_____________ AL061939 19.3150 -77.6575 TS 55 0 3 125
1939302N15278 1939 75 NA CS NOT_NAMED 1939-11-02 18:00:00 TS 19.2000 -77.5000 55 hurdat_atl main 70 70 O_____________ hurdat_atl AL061939 19.2000 -77.5000 TS 55 0 4 127
1939302N15278 1939 75 NA CS NOT_NAMED 1939-11-02 21:00:00 TS 19.1000 -77.3575 main 78 67 P_____________ AL061939 19.1000 -77.3575 TS 55 0 3 125
1939302N15278 1939 75 NA CS NOT_NAMED 1939-11-03 00:00:00 TS 19.0000 -77.2000 55 hurdat_atl main 67 55 O_____________ hurdat_atl AL061939 19.0000 -77.2000 TS 55 0 4 123
1939302N15278 1939 75 NA CS NOT_NAMED 1939-11-03 03:00:00 TS 18.8775 -76.9999 main 55 44 P_____________ AL061939 18.8775 -76.9999 TS 55 0 4 118
1939302N15278 1939 75 NA CS NOT_NAMED 1939-11-03 06:00:00 TS 18.8000 -76.8000 55 hurdat_atl main 45 45 O_____________ hurdat_atl AL061939 18.8000 -76.8000 TS 55 0 3 101
1939302N15278 1939 75 NA CS NOT_NAMED 1939-11-03 09:00:00 TS 18.8125 -76.6425 main 54 54 P_____________ AL061939 18.8125 -76.6425 TS 55 0 3 71
1939302N15278 1939 75 NA CS NOT_NAMED 1939-11-03 12:00:00 TS 18.9000 -76.5000 55 hurdat_atl main 70 70 O_____________ hurdat_atl AL061939 18.9000 -76.5000 TS 55 0 3 53
1939302N15278 1939 75 NA CS NOT_NAMED 1939-11-03 15:00:00 TS 19.0200 -76.3500 main 89 89 P_____________ AL061939 19.0200 -76.3500 TS 55 0 4 43
1939302N15278 1939 75 NA CS NOT_NAMED 1939-11-03 18:00:00 TS 19.2000 -76.2000 55 hurdat_atl main 89 67 O_____________ hurdat_atl AL061939 19.2000 -76.2000 TS 55 0 5 35
1939302N15278 1939 75 NA CS NOT_NAMED 1939-11-03 21:00:00 TS 19.4350 -76.0425 main 67 33 P_____________ AL061939 19.4350 -76.0425 TS 55 0 6 30
1939302N15278 1939 75 NA CS NOT_NAMED 1939-11-04 00:00:00 TS 19.7000 -75.9000 55 hurdat_atl main 33 11 O_____________ hurdat_atl AL061939 19.7000 -75.9000 TS 55 0 6 24
1939302N15278 1939 75 NA CS NOT_NAMED 1939-11-04 03:00:00 TS 19.9500 -75.7924 main 11 0 P_____________ AL061939 19.9500 -75.7924 TS 52 0 5 21
1939302N15278 1939 75 NA NA NOT_NAMED 1939-11-04 06:00:00 TS 20.2000 -75.7000 50 hurdat_atl main 0 0 O_____________ hurdat_atl AL061939 20.2000 -75.7000 TS 50 0 5 20
1939302N15278 1939 75 NA NA NOT_NAMED 1939-11-04 09:00:00 TS 20.4575 -75.6000 main 0 0 P_____________ AL061939 20.4575 -75.6000 TS 50 0 5 20
1939302N15278 1939 75 NA NA NOT_NAMED 1939-11-04 12:00:00 TS 20.7000 -75.5000 50 hurdat_atl main 10 10 O_____________ hurdat_atl AL061939 20.7000 -75.5000 TS 50 0 5 24
1939302N15278 1939 75 NA NA NOT_NAMED 1939-11-04 15:00:00 TS 20.9000 -75.3925 main 23 20 P_____________ AL061939 20.9000 -75.3925 TS 50 0 4 25
1939302N15278 1939 75 NA NA NOT_NAMED 1939-11-04 18:00:00 TS 21.1000 -75.3000 50 hurdat_atl main 33 33 O_____________ hurdat_atl AL061939 21.1000 -75.3000 TS 50 0 5 18
1939302N15278 1939 75 NA NA NOT_NAMED 1939-11-04 21:00:00 TS 21.3425 -75.2350 main 53 53 P_____________ AL061939 21.3425 -75.2350 TS 50 0 5 11
1939302N15278 1939 75 NA NA NOT_NAMED 1939-11-05 00:00:00 TS 21.6000 -75.2000 50 hurdat_atl main 78 78 O_____________ hurdat_atl AL061939 21.6000 -75.2000 TS 50 0 5 2
1939302N15278 1939 75 NA NA NOT_NAMED 1939-11-05 03:00:00 TS 21.8425 -75.2074 main 98 98 P_____________ AL061939 21.8425 -75.2074 TS 50 0 5 2
1939302N15278 1939 75 NA NA NOT_NAMED 1939-11-05 06:00:00 TS 22.1000 -75.2000 50 hurdat_atl main 129 129 O_____________ hurdat_atl AL061939 22.1000 -75.2000 TS 50 0 5 5
1939302N15278 1939 75 NA NA NOT_NAMED 1939-11-05 09:00:00 TS 22.3473 -75.1594 main 151 151 P_____________ AL061939 22.3473 -75.1594 TS 50 0 6 17
1939302N15278 1939 75 NA NA NOT_NAMED 1939-11-05 12:00:00 TS 22.7000 -75.0000 50 hurdat_atl main 199 199 O_____________ hurdat_atl AL061939 22.7000 -75.0000 TS 50 0 10 27
1939302N15278 1939 75 NA NA NOT_NAMED 1939-11-05 15:00:00 TS 23.2099 -74.6743 main 256 256 P_____________ AL061939 23.2099 -74.6743 TS 50 0 14 31
1939302N15278 1939 75 NA NA NOT_NAMED 1939-11-05 18:00:00 TS 23.9000 -74.2000 50 hurdat_atl main 317 317 O_____________ hurdat_atl AL061939 23.9000 -74.2000 TS 50 0 18 31
1939302N15278 1939 75 NA NA NOT_NAMED 1939-11-05 21:00:00 TS 24.7473 -73.6520 main 394 394 P_____________ AL061939 24.7473 -73.6520 TS 52 0 21 31
1939302N15278 1939 75 NA NA NOT_NAMED 1939-11-06 00:00:00 TS 25.7000 -73.0000 55 hurdat_atl main 491 491 O_____________ hurdat_atl AL061939 25.7000 -73.0000 TS 55 0 22 33
1939302N15278 1939 75 NA NA NOT_NAMED 1939-11-06 03:00:00 TS 26.6268 -72.3080 main 589 589 P_____________ AL061939 26.6268 -72.3080 TS 55 0 23 35
1939302N15278 1939 75 NA NA NOT_NAMED 1939-11-06 06:00:00 TS 27.6000 -71.5000 55 hurdat_atl main 704 704 O_____________ hurdat_atl AL061939 27.6000 -71.5000 TS 55 0 25 39
1939302N15278 1939 75 NA NA NOT_NAMED 1939-11-06 09:00:00 TS 28.5451 -70.5411 main 834 834 P_____________ AL061939 28.5451 -70.5411 TS 55 0 27 40
1939302N15278 1939 75 NA NA NOT_NAMED 1939-11-06 12:00:00 TS 29.7000 -69.5000 55 hurdat_atl main 861 833 O_____________ hurdat_atl AL061939 29.7000 -69.5000 TS 55 0 32 34
1939302N15278 1939 75 NA NA NOT_NAMED 1939-11-06 15:00:00 TS 31.2068 -68.4757 main 825 800 P_____________ AL061939 31.2068 -68.4757 TS 55 0 38 29
1939302N15278 1939 75 NA NA NOT_NAMED 1939-11-06 18:00:00 ET 33.0000 -67.4000 55 hurdat_atl main 804 803 O_____________ hurdat_atl AL061939 33.0000 -67.4000 EX 55 -4 42 27
1939302N15278 1939 75 NA NA NOT_NAMED 1939-11-06 21:00:00 ET 34.9623 -66.2412 main 815 679 P_____________ AL061939 34.9623 -66.2412 EX 55 -4 45 26
1939302N15278 1939 75 NA NA NOT_NAMED 1939-11-07 00:00:00 ET 37.0000 -65.0000 55 hurdat_atl main 676 O_____________ hurdat_atl AL061939 37.0000 -65.0000 EX 55 -4 45 26

IBTrACS Databaseについて

本データベースは、米国NOAAが公開する1842年以降の世界の熱帯低気圧のベストトラックデータアーカイブInternational Best Track Archive for Climate Stewardship (IBTrACS)を、ウェブで閲覧しやすい形式に変換したものです。

最終更新日:2021-12-01